Monument, New Mexico
Current Conditions -  °F | °C
As of 6:50 AM on Wednesday 26 Nov 2014 (Local Time) from KHOB Reporting Station
Clear Clear  
Wind Chill: 33°   Ceiling: Unl
Heat Index: 41°   Visibility: 10mi
Dew Point: 16°   Wind: 14mph
Humidity: 36%   Direction: 290°WNW
Pressure: 30.2"   Gusts: NA
Location:  32.62°N, 103.26°W
Report Text: KHOB 261350Z 29012KT 10SM SKC 05/M09 A3020
Loading
Personal Weather Stations






























Interactive Weather Map New forecast layout! Learn more

10-Day Weather Forecast

Advertisements
Track Severe Weather on mobile